Portada
METAR-TAF:

METAR-TAF

Aeropuertos :

Ringkøbing-Skjern, Dinamarca

latitud: 56-00N, longitud: 008-21E, altitud: 5 m

Observación

El informe se hizo hace 20 horas y 27 minutos, a las 16:20 UTC
Viento 5 kt del oeste-noroeste
Temperatura 15°C
Humedad 67%
Presión 1030 hPa
Visibilidad 10 km o más
sin nubes por debajo de 1500 m y sin presencia de cumulonimbus.

METAR: EKVJ 181620Z 30005KT CAVOK 15/09 Q1030

Hora: 14:47 (12:47 UTC)

Pronóstico

El informe se hizo hace 27 horas y 53 minutos, a las 08:54 UTC
Pronóstico válido del 18 a las 09 UTC al 18 a las 15 UTC
Viento 5 kt del sur
Visibilidad 10 km o más
sin nubes por debajo de 1500 m y sin presencia de cumulonimbus.
Evolucionando progresivamente
del 18 a las 09 UTC al 18 a las 11 UTC
Viento 10 kt del oeste-noroeste

TAF: EKVJ 180854Z 1809/1815 18005KT CAVOK BECMG 1809/1811 30010KT

Observaciones y pronósticos meteorológicos de más de 4000 aeropuertos (mensajes METAR y TAF).

Los puntos amarillos y rojos representan las estaciones disponibles.

Ponga el ratón en el punto deseado para ver el nombre de la estación.

Haga clic para ver las observaciones y los pronósticos meteorológicos.

Para cambiar el mapa : haga clic en los botones verdes con una cruz de color negro para hacer un zoom, en el botón verde con un guión para alejar o en las flechas verdes para mapas adyacentes.


METAR-TAF: